Time;durP1;ratioP1;P1;durP2;ratioP2;P2;SDS_P1;SDS_P2;PMS_P1;PMS_P2;Temp;Humidity;BMP_temperature;BMP_pressure;BME280_temperature;BME280_humidity;BME280_pressure;Samples;Min_cycle;Max_cycle;Signal;HPM_P1;HPM_P2
2022/05/28 00:01:33;;;;;;;13.55;1.15;;;10.50;99.90;;;;;;5044215;28;20037;-59
2022/05/28 00:03:59;;;;;;;11.27;0.85;;;10.50;99.90;;;;;;5039768;28;20578;-59
2022/05/28 00:06:28;;;;;;;15.90;1.25;;;10.50;99.90;;;;;;5020255;28;20554;-59
2022/05/28 00:08:56;;;;;;;10.55;0.90;;;10.40;99.90;;;;;;5039271;28;20052;-61
2022/05/28 00:11:41;;;;;;;10.65;0.90;;;10.40;99.90;;;;;;5034686;28;20552;-59
2022/05/28 00:14:07;;;;;;;9.93;0.80;;;10.40;99.90;;;;;;5039518;28;20492;-59
2022/05/28 00:16:33;;;;;;;10.60;1.02;;;10.50;99.90;;;;;;5045366;28;20049;-59
2022/05/28 00:18:59;;;;;;;8.80;1.17;;;10.50;99.90;;;;;;5038496;28;20242;-59
2022/05/28 00:21:27;;;;;;;9.57;0.80;;;10.50;99.90;;;;;;5033476;28;20044;-59
2022/05/28 00:23:52;;;;;;;10.55;0.88;;;10.40;99.90;;;;;;5038960;28;20038;-59
2022/05/28 00:26:18;;;;;;;9.10;0.90;;;10.50;99.90;;;;;;5041147;28;20436;-59
2022/05/28 00:28:44;;;;;;;11.93;1.05;;;10.50;99.90;;;;;;5038857;28;20036;-59
2022/05/28 00:31:11;;;;;;;10.73;0.90;;;10.40;99.90;;;;;;5037825;28;20064;-60
2022/05/28 00:33:37;;;;;;;14.30;1.20;;;10.40;99.90;;;;;;5042301;28;20060;-59
2022/05/28 00:36:05;;;;;;;14.73;1.40;;;10.50;99.90;;;;;;5021989;28;20036;-60
2022/05/28 00:38:30;;;;;;;10.93;0.93;;;10.40;99.90;;;;;;5042687;28;20033;-59
2022/05/28 00:40:59;;;;;;;11.85;1.08;;;10.40;99.90;;;;;;5034366;28;20033;-60
2022/05/28 00:43:27;;;;;;;11.02;1.27;;;10.40;99.90;;;;;;5038270;28;20092;-59
2022/05/28 00:46:01;;;;;;;9.68;1.00;;;10.40;99.90;;;;;;5036989;28;20120;-59
2022/05/28 00:48:31;;;;;;;;;;;10.30;99.90;;;;;;5038032;28;20395;-59
2022/05/28 00:51:04;;;;;;;11.23;1.10;;;10.40;99.90;;;;;;5037556;28;19942;-59
2022/05/28 00:53:30;;;;;;;;;;;10.40;99.90;;;;;;5052900;28;20116;-59
2022/05/28 00:55:56;;;;;;;11.68;1.05;;;10.40;99.90;;;;;;5039842;28;20462;-59
2022/05/28 00:58:21;;;;;;;17.85;1.60;;;10.50;99.90;;;;;;5038737;28;20060;-59
2022/05/28 01:00:47;;;;;;;10.10;1.00;;;10.40;99.90;;;;;;5033761;28;20082;-59
2022/05/28 01:03:24;;;;;;;12.57;1.23;;;10.50;99.90;;;;;;5029443;28;20434;-59
2022/05/28 01:06:03;;;;;;;11.52;0.93;;;10.60;99.90;;;;;;5050118;28;20084;-58
2022/05/28 01:08:37;;;;;;;15.02;1.20;;;10.50;99.90;;;;;;5035269;28;20083;-58
2022/05/28 01:11:06;;;;;;;;;;;10.50;99.90;;;;;;5039870;28;20179;-59
2022/05/28 01:13:54;;;;;;;9.68;1.20;;;10.60;99.90;;;;;;5034803;28;19924;-59
2022/05/28 01:16:33;;;;;;;11.48;1.38;;;10.50;99.90;;;;;;5035249;28;20533;-60
2022/05/28 01:19:22;;;;;;;15.15;1.25;;;10.60;99.90;;;;;;5040655;28;20116;-60
2022/05/28 01:22:22;;;;;;;18.83;1.17;;;10.60;99.90;;;;;;5056291;28;20507;-59
2022/05/28 01:25:10;;;;;;;12.75;1.08;;;10.60;99.90;;;;;;5039919;28;20499;-59
2022/05/28 01:27:44;;;;;;;12.88;1.15;;;10.50;99.90;;;;;;5034690;28;20045;-59
2022/05/28 01:30:13;;;;;;;14.18;1.50;;;10.70;99.90;;;;;;5053237;28;20112;-59
2022/05/28 01:32:41;;;;;;;13.55;1.20;;;10.70;99.90;;;;;;5034775;28;20045;-59
2022/05/28 01:35:11;;;;;;;9.02;0.95;;;10.70;99.90;;;;;;5026116;28;20087;-58
2022/05/28 01:37:38;;;;;;;13.82;1.38;;;10.70;99.90;;;;;;5038737;28;20102;-59
2022/05/28 01:40:08;;;;;;;16.00;1.55;;;10.70;99.90;;;;;;5053234;28;20056;-60
2022/05/28 01:42:36;;;;;;;12.43;1.45;;;10.70;99.90;;;;;;5039439;28;20262;-58
2022/05/28 01:45:04;;;;;;;18.10;1.23;;;10.60;99.90;;;;;;5041596;28;20119;-58
2022/05/28 01:47:33;;;;;;;13.18;1.08;;;10.30;99.90;;;;;;5052694;28;20038;-58
2022/05/28 01:50:01;;;;;;;13.40;1.08;;;10.20;99.90;;;;;;5054384;28;20124;-59
2022/05/28 01:52:29;;;;;;;14.48;1.58;;;10.00;99.90;;;;;;5038953;28;20049;-59
2022/05/28 01:54:57;;;;;;;18.40;1.88;;;10.00;99.90;;;;;;5042152;28;20136;-59
2022/05/28 01:57:23;;;;;;;14.85;1.30;;;9.90;99.90;;;;;;5020661;28;20045;-59
2022/05/28 01:59:49;;;;;;;21.13;2.17;;;9.90;99.90;;;;;;5035672;28;20045;-59
2022/05/28 02:02:15;;;;;;;15.93;1.75;;;10.00;99.90;;;;;;5024215;28;20094;-59
2022/05/28 02:04:45;;;;;;;15.02;1.95;;;9.90;99.90;;;;;;5037164;28;20087;-59
2022/05/28 02:07:11;;;;;;;16.17;2.10;;;10.00;99.90;;;;;;5036846;28;20059;-59
2022/05/28 02:09:45;;;;;;;17.63;1.90;;;10.00;99.90;;;;;;5031823;28;20036;-59
2022/05/28 02:12:16;;;;;;;16.05;1.98;;;10.00;99.90;;;;;;5033539;28;20602;-59
2022/05/28 02:14:58;;;;;;;15.55;1.63;;;10.10;99.90;;;;;;5033803;28;20057;-59
2022/05/28 02:17:39;;;;;;;18.25;1.83;;;10.30;99.90;;;;;;5035535;28;20044;-59
2022/05/28 02:20:25;;;;;;;17.65;1.65;;;10.30;99.90;;;;;;5042259;28;20043;-59
2022/05/28 02:23:07;;;;;;;14.50;2.20;;;10.40;99.90;;;;;;5029771;28;20415;-59
2022/05/28 02:26:06;;;;;;;19.52;2.20;;;10.50;99.90;;;;;;5040163;28;20540;-60
2022/05/28 02:28:33;;;;;;;15.07;1.90;;;10.60;99.90;;;;;;5038451;28;20064;-60
2022/05/28 02:31:09;;;;;;;14.98;2.00;;;10.60;99.90;;;;;;5017946;28;20037;-60
2022/05/28 02:33:34;;;;;;;15.95;1.85;;;10.40;99.90;;;;;;5028155;28;20038;-60
2022/05/28 02:36:00;;;;;;;18.48;2.60;;;10.30;99.90;;;;;;5055471;28;20037;-61
2022/05/28 02:38:26;;;;;;;18.63;1.92;;;10.20;99.90;;;;;;5022230;28;20416;-60
2022/05/28 02:40:54;;;;;;;15.55;1.95;;;10.10;99.90;;;;;;5032103;28;20119;-60
2022/05/28 02:43:22;;;;;;;11.75;1.50;;;10.00;99.90;;;;;;5054786;28;20124;-62
2022/05/28 02:45:47;;;;;;;18.73;2.00;;;10.00;99.90;;;;;;5037280;28;20069;-60
2022/05/28 02:48:13;;;;;;;15.25;1.80;;;10.10;99.90;;;;;;5038653;28;20511;-61
2022/05/28 02:50:39;;;;;;;16.38;1.90;;;10.00;99.90;;;;;;5042507;28;20506;-60
2022/05/28 02:53:06;;;;;;;17.20;1.67;;;10.00;99.90;;;;;;5044280;28;20045;-61
2022/05/28 02:55:32;;;;;;;14.43;1.90;;;9.90;99.90;;;;;;5045092;28;20037;-59
2022/05/28 02:57:58;;;;;;;14.23;1.80;;;10.00;99.90;;;;;;5038914;28;20034;-60
2022/05/28 03:00:24;;;;;;;16.98;2.20;;;9.90;99.90;;;;;;5036332;28;20039;-60
2022/05/28 03:02:50;;;;;;;17.20;1.98;;;10.00;99.90;;;;;;5043647;28;21407;-60
2022/05/28 03:05:18;;;;;;;17.30;2.70;;;10.00;99.90;;;;;;5020729;28;20061;-60
2022/05/28 03:07:44;;;;;;;16.50;1.75;;;9.90;99.90;;;;;;5051036;28;20510;-60
2022/05/28 03:10:11;;;;;;;19.33;2.83;;;10.00;99.90;;;;;;5036955;28;20124;-60
2022/05/28 03:12:40;;;;;;;12.90;1.48;;;10.00;99.90;;;;;;5030369;28;20056;-61
2022/05/28 03:15:07;;;;;;;17.40;2.20;;;10.00;99.90;;;;;;5037896;28;20124;-60
2022/05/28 03:17:32;;;;;;;11.15;1.23;;;10.00;99.90;;;;;;5036750;28;20547;-60
2022/05/28 03:20:00;;;;;;;14.23;2.20;;;9.90;99.90;;;;;;5042484;28;20143;-59
2022/05/28 03:22:26;;;;;;;20.25;2.20;;;10.00;99.90;;;;;;5037861;28;20097;-60
2022/05/28 03:24:52;;;;;;;12.68;1.42;;;9.90;99.90;;;;;;5045783;28;20049;-60
2022/05/28 03:27:18;;;;;;;14.77;1.98;;;9.90;99.90;;;;;;5040545;28;20045;-60
2022/05/28 03:29:43;;;;;;;18.77;2.58;;;9.90;99.90;;;;;;5049787;28;20444;-59
2022/05/28 03:32:09;;;;;;;20.45;2.25;;;10.00;99.90;;;;;;5054535;28;20033;-60
2022/05/28 03:34:35;;;;;;;13.68;2.03;;;9.90;99.90;;;;;;5041866;28;20087;-59
2022/05/28 03:37:02;;;;;;;15.00;2.05;;;10.10;99.90;;;;;;5037053;28;20037;-59
2022/05/28 03:39:28;;;;;;;16.08;1.90;;;10.10;99.90;;;;;;5022340;28;20029;-59
2022/05/28 03:41:54;;;;;;;19.27;1.80;;;10.20;99.90;;;;;;5039908;28;20400;-60
2022/05/28 03:44:20;;;;;;;14.48;1.58;;;10.30;99.90;;;;;;5044309;28;20041;-60
2022/05/28 03:46:46;;;;;;;19.80;2.40;;;10.30;99.90;;;;;;5043254;28;20044;-59
2022/05/28 03:49:22;;;;;;;11.82;1.83;;;10.40;99.90;;;;;;5031554;28;20037;-60
2022/05/28 03:51:49;;;;;;;14.95;1.70;;;10.40;99.90;;;;;;5038308;28;20464;-59
2022/05/28 03:54:14;;;;;;;20.50;2.38;;;10.50;99.90;;;;;;5041693;28;20539;-59
2022/05/28 03:56:42;;;;;;;16.65;2.08;;;10.60;99.90;;;;;;5045431;28;20060;-59
2022/05/28 03:59:08;;;;;;;20.02;2.55;;;10.60;99.90;;;;;;5046791;28;20475;-60
2022/05/28 04:01:35;;;;;;;14.93;1.90;;;10.70;99.90;;;;;;5055387;28;20036;-59
2022/05/28 04:04:01;;;;;;;17.95;2.13;;;10.70;99.90;;;;;;5036595;28;20045;-60
2022/05/28 04:06:27;;;;;;;17.33;2.05;;;10.80;99.90;;;;;;5038617;28;20140;-59
2022/05/28 04:08:53;;;;;;;18.77;1.98;;;10.80;99.90;;;;;;5057071;28;20136;-60
2022/05/28 04:11:19;;;;;;;19.48;2.50;;;10.70;99.90;;;;;;5037087;28;20072;-60
2022/05/28 04:13:46;;;;;;;18.85;2.30;;;10.80;99.90;;;;;;5045074;28;20041;-60
2022/05/28 04:16:13;;;;;;;20.25;2.53;;;10.70;99.90;;;;;;5060975;28;20029;-59
2022/05/28 04:18:40;;;;;;;20.33;2.22;;;10.60;99.90;;;;;;5034410;28;20531;-61
2022/05/28 04:21:06;;;;;;;20.55;2.70;;;10.40;99.90;;;;;;5044288;28;20033;-61
2022/05/28 04:23:33;;;;;;;11.40;1.30;;;10.10;99.90;;;;;;5039005;28;20511;-60
2022/05/28 04:25:59;;;;;;;12.07;1.10;;;9.70;99.90;;;;;;5022248;28;20316;-61
2022/05/28 04:28:25;;;;;;;9.98;0.90;;;9.50;99.90;;;;;;5038298;28;20120;-62
2022/05/28 04:30:50;;;;;;;17.00;1.55;;;9.40;99.90;;;;;;5040095;28;20510;-61
2022/05/28 04:33:16;;;;;;;16.73;1.20;;;9.30;99.90;;;;;;5047181;28;20071;-61
2022/05/28 04:35:42;;;;;;;12.70;1.00;;;9.30;99.90;;;;;;5023258;28;20033;-60
2022/05/28 04:38:08;;;;;;;14.23;1.38;;;9.30;99.90;;;;;;5022834;28;20509;-59
2022/05/28 04:40:33;;;;;;;14.07;1.10;;;9.20;99.90;;;;;;5055459;28;20079;-61
2022/05/28 04:42:59;;;;;;;12.27;0.80;;;9.30;99.90;;;;;;5040821;28;20107;-60
2022/05/28 04:45:25;;;;;;;10.98;0.90;;;9.40;99.90;;;;;;5041541;28;20048;-61
2022/05/28 04:47:50;;;;;;;11.27;1.25;;;9.60;99.90;;;;;;5038447;28;20072;-60
2022/05/28 04:50:16;;;;;;;11.85;1.58;;;9.60;99.90;;;;;;5048081;28;20057;-60
2022/05/28 04:52:42;;;;;;;18.50;2.05;;;9.70;99.90;;;;;;5056921;28;20044;-60
2022/05/28 04:55:09;;;;;;;22.90;2.55;;;9.80;99.90;;;;;;5048369;28;20393;-60
2022/05/28 04:57:36;;;;;;;19.05;2.15;;;9.90;99.90;;;;;;5039769;28;20040;-60
2022/05/28 05:00:03;;;;;;;26.00;2.53;;;10.00;99.90;;;;;;5038853;28;20483;-61
2022/05/28 05:02:28;;;;;;;20.02;2.20;;;10.10;99.90;;;;;;5034584;28;20037;-60
2022/05/28 05:04:58;;;;;;;16.33;2.10;;;10.30;99.90;;;;;;5057274;28;20040;-61
2022/05/28 05:07:25;;;;;;;22.10;2.80;;;10.30;99.90;;;;;;5037173;28;20056;-60
2022/05/28 05:09:50;;;;;;;13.73;1.80;;;10.50;99.90;;;;;;5038883;28;20476;-60
2022/05/28 05:12:17;;;;;;;22.70;2.75;;;10.50;99.90;;;;;;5042186;28;20033;-61
2022/05/28 05:14:42;;;;;;;16.13;2.03;;;10.50;99.90;;;;;;5031349;28;20537;-60
2022/05/28 05:17:08;;;;;;;14.75;1.70;;;10.50;99.90;;;;;;5058869;28;20045;-61
2022/05/28 05:19:34;;;;;;;16.92;2.13;;;10.50;99.90;;;;;;5037659;28;20037;-61
2022/05/28 05:22:00;;;;;;;18.15;1.95;;;10.50;99.90;;;;;;5038610;28;20128;-61
2022/05/28 05:24:25;;;;;;;16.20;1.75;;;10.50;99.90;;;;;;5025622;28;20479;-61
2022/05/28 05:26:51;;;;;;;18.30;2.25;;;10.80;99.90;;;;;;5037562;28;20212;-61
2022/05/28 05:29:18;;;;;;;15.20;1.92;;;10.90;99.90;;;;;;5043387;28;20045;-61
2022/05/28 05:31:43;;;;;;;17.20;2.28;;;11.10;99.90;;;;;;5034379;28;20036;-61
2022/05/28 05:34:09;;;;;;;17.52;2.45;;;11.40;99.90;;;;;;5037204;28;20570;-61
2022/05/28 05:36:35;;;;;;;21.27;2.28;;;11.50;99.90;;;;;;5045638;28;20068;-60
2022/05/28 05:39:01;;;;;;;19.75;2.40;;;11.60;99.90;;;;;;5052669;28;20061;-62
2022/05/28 05:41:27;;;;;;;16.90;1.70;;;11.60;99.90;;;;;;5041295;28;20479;-62
2022/05/28 05:43:53;;;;;;;19.92;2.10;;;11.60;99.90;;;;;;5042845;28;20036;-60
2022/05/28 05:46:19;;;;;;;18.77;2.53;;;11.60;99.90;;;;;;5038088;28;20045;-61
2022/05/28 05:48:44;;;;;;;11.05;1.83;;;11.40;99.90;;;;;;5038381;28;20045;-60
2022/05/28 05:51:16;;;;;;;17.58;1.70;;;11.30;99.90;;;;;;5038889;28;20393;-60
2022/05/28 05:53:42;;;;;;;17.48;1.83;;;11.30;99.90;;;;;;5059065;28;20060;-60
2022/05/28 05:56:09;;;;;;;14.43;1.75;;;11.20;99.90;;;;;;5041876;28;20102;-61
2022/05/28 05:58:35;;;;;;;18.40;2.30;;;11.20;99.90;;;;;;5048778;28;20033;-60
2022/05/28 06:01:02;;;;;;;12.60;1.95;;;11.00;99.90;;;;;;5041049;28;20056;-61
2022/05/28 06:03:29;;;;;;;19.45;1.88;;;10.70;99.90;;;;;;5042301;28;20048;-61
2022/05/28 06:06:04;;;;;;;13.88;1.85;;;10.50;99.90;;;;;;5037253;28;20052;-61
2022/05/28 06:08:30;;;;;;;17.95;1.88;;;10.40;99.90;;;;;;5050260;28;20115;-61
2022/05/28 06:10:56;;;;;;;20.00;1.77;;;10.30;99.90;;;;;;5050554;28;20048;-61
2022/05/28 06:13:22;;;;;;;14.30;1.95;;;10.30;99.90;;;;;;5040915;28;20033;-60
2022/05/28 06:15:48;;;;;;;16.75;1.92;;;10.20;99.90;;;;;;5053693;28;20164;-61
2022/05/28 06:18:15;;;;;;;20.48;1.98;;;10.50;99.90;;;;;;5036162;28;20384;-61
2022/05/28 06:20:44;;;;;;;19.13;2.60;;;10.60;99.90;;;;;;5036106;28;20048;-60
2022/05/28 06:23:11;;;;;;;14.68;1.60;;;10.70;99.90;;;;;;5035065;28;20046;-61
2022/05/28 06:25:38;;;;;;;12.80;2.10;;;10.80;99.90;;;;;;5021012;28;20514;-61
2022/05/28 06:28:05;;;;;;;16.83;2.13;;;10.80;99.90;;;;;;5055404;28;20046;-62
2022/05/28 06:30:30;;;;;;;17.55;1.88;;;10.90;99.90;;;;;;5033687;28;20400;-62
2022/05/28 06:32:56;;;;;;;19.58;2.30;;;11.10;99.90;;;;;;5037385;28;20033;-61
2022/05/28 06:35:21;;;;;;;17.15;1.98;;;11.30;99.90;;;;;;5051872;28;20109;-61
2022/05/28 06:37:49;;;;;;;17.83;2.22;;;11.40;99.90;;;;;;5040257;28;20041;-61
2022/05/28 06:40:15;;;;;;;17.48;2.22;;;11.40;99.90;;;;;;5021877;28;20041;-61
2022/05/28 06:42:40;;;;;;;17.48;2.50;;;11.70;99.90;;;;;;5052210;28;20457;-61
2022/05/28 06:45:07;;;;;;;21.48;2.33;;;11.60;99.90;;;;;;5041502;28;20441;-61
2022/05/28 06:47:33;;;;;;;22.30;2.60;;;11.60;99.90;;;;;;5054322;28;20041;-60
2022/05/28 06:52:42;;;;;;;16.60;1.95;;;11.60;99.90;;;;;;5044762;28;20441;-60
2022/05/28 06:55:08;;;;;;;16.40;2.08;;;12.00;99.90;;;;;;5036688;28;20103;-60
2022/05/28 06:57:34;;;;;;;16.90;2.28;;;12.40;99.90;;;;;;5042234;28;20040;-60
2022/05/28 06:59:59;;;;;;;16.67;1.95;;;12.60;99.90;;;;;;5045236;28;20034;-60
2022/05/28 07:02:25;;;;;;;14.82;2.42;;;12.90;99.90;;;;;;5023075;28;20125;-60
2022/05/28 07:04:51;;;;;;;15.80;2.25;;;13.00;99.90;;;;;;5030156;28;20123;-60
2022/05/28 07:07:17;;;;;;;13.40;1.73;;;13.10;99.90;;;;;;5037136;28;20454;-60
2022/05/28 07:09:42;;;;;;;15.52;1.48;;;13.10;99.90;;;;;;5055803;28;20055;-60
2022/05/28 07:12:08;;;;;;;10.93;1.60;;;13.30;99.90;;;;;;5038483;28;20452;-59
2022/05/28 07:14:34;;;;;;;10.82;1.33;;;13.40;99.90;;;;;;5037705;28;20103;-60
2022/05/28 07:17:00;;;;;;;14.48;1.60;;;13.70;99.90;;;;;;5042180;28;20036;-59
2022/05/28 07:19:25;;;;;;;16.30;1.67;;;13.90;99.90;;;;;;5039182;28;20339;-59
2022/05/28 07:21:51;;;;;;;15.32;1.80;;;13.70;99.90;;;;;;5027321;28;20033;-59
2022/05/28 07:24:17;;;;;;;12.52;1.80;;;13.90;99.90;;;;;;5042175;28;20120;-59
2022/05/28 07:26:42;;;;;;;15.85;1.90;;;14.10;99.90;;;;;;5040239;28;20088;-60
2022/05/28 07:29:08;;;;;;;15.85;1.90;;;13.80;99.90;;;;;;5043267;28;20821;-59
2022/05/28 07:31:35;;;;;;;18.70;2.20;;;12.90;99.90;;;;;;5040476;28;20049;-59
2022/05/28 07:34:01;;;;;;;16.10;2.13;;;12.90;99.90;;;;;;5045039;28;20094;-60
2022/05/28 07:36:27;;;;;;;14.13;1.77;;;12.70;99.90;;;;;;5040362;28;20036;-60
2022/05/28 07:38:53;;;;;;;15.35;1.85;;;12.80;99.90;;;;;;5049115;28;20411;-60
2022/05/28 07:41:22;;;;;;;17.38;2.20;;;13.20;99.90;;;;;;5024130;28;20480;-60
2022/05/28 07:43:48;;;;;;;14.45;1.60;;;13.50;99.90;;;;;;5040520;28;20121;-60
2022/05/28 07:46:20;;;;;;;19.77;2.40;;;14.00;99.90;;;;;;5030967;28;20041;-60
2022/05/28 07:48:46;;;;;;;13.43;1.60;;;13.80;99.90;;;;;;5064710;28;20057;-60
2022/05/28 07:51:12;;;;;;;14.65;1.60;;;13.50;99.90;;;;;;5064664;28;20041;-59
2022/05/28 07:53:38;;;;;;;13.82;1.80;;;13.20;99.90;;;;;;5032190;28;20435;-59
2022/05/28 07:56:05;;;;;;;16.15;2.08;;;13.50;99.90;;;;;;5031001;28;20143;-60
2022/05/28 07:58:32;;;;;;;14.73;2.20;;;13.90;99.90;;;;;;5047321;28;20049;-60
2022/05/28 08:00:59;;;;;;;18.40;2.25;;;13.90;99.90;;;;;;5047449;28;20037;-60
2022/05/28 08:03:25;;;;;;;16.58;2.25;;;13.80;99.90;;;;;;5014123;28;20041;-60
2022/05/28 08:05:52;;;;;;;10.68;1.50;;;13.70;99.90;;;;;;5063942;28;20337;-60
2022/05/28 08:08:20;;;;;;;17.38;2.13;;;13.20;99.90;;;;;;5014166;28;20048;-60
2022/05/28 08:10:48;;;;;;;12.95;1.65;;;13.40;99.90;;;;;;5047203;28;20492;-60
2022/05/28 08:13:18;;;;;;;14.80;1.88;;;13.80;99.90;;;;;;5063274;28;20045;-60
2022/05/28 08:15:44;;;;;;;18.10;2.60;;;13.70;99.90;;;;;;5030953;28;20377;-60
2022/05/28 08:18:12;;;;;;;15.32;1.88;;;14.20;99.90;;;;;;5063786;28;20038;-60
2022/05/28 08:23:22;;;;;;;16.13;2.20;;;14.30;99.90;;;;;;5058610;28;20048;-60
2022/05/28 08:25:49;;;;;;;15.10;2.60;;;14.60;99.90;;;;;;5063894;28;20038;-60
2022/05/28 08:28:17;;;;;;;16.10;1.75;;;15.30;99.90;;;;;;5030268;28;20052;-60
2022/05/28 08:30:43;;;;;;;12.70;1.45;;;14.70;99.90;;;;;;5030802;28;20518;-60
2022/05/28 08:33:10;;;;;;;16.30;2.00;;;14.20;99.90;;;;;;5063589;28;20053;-60
2022/05/28 08:35:37;;;;;;;10.57;1.13;;;14.30;99.90;;;;;;5046693;28;20049;-60
2022/05/28 08:38:10;;;;;;;11.70;1.88;;;14.50;99.90;;;;;;5031677;28;20396;-59
2022/05/28 08:41:05;;;;;;;12.10;1.98;;;14.10;99.90;;;;;;5014071;28;20467;-60
2022/05/28 08:43:34;;;;;;;14.98;1.70;;;13.90;99.90;;;;;;5063285;28;20422;-60
2022/05/28 08:46:00;;;;;;;14.10;1.40;;;14.40;99.90;;;;;;5030111;28;20483;-60
2022/05/28 08:48:33;;;;;;;16.00;1.88;;;15.00;99.90;;;;;;5031323;28;20480;-60
2022/05/28 08:51:05;;;;;;;13.00;1.88;;;14.60;99.90;;;;;;5031387;28;20473;-60
2022/05/28 08:53:36;;;;;;;12.93;1.13;;;14.20;99.90;;;;;;5029923;28;20045;-60
2022/05/28 08:56:04;;;;;;;10.85;1.42;;;13.90;99.90;;;;;;5063294;28;20100;-60
2022/05/28 08:58:32;;;;;;;13.50;1.70;;;13.80;99.90;;;;;;5031066;28;20053;-60
2022/05/28 09:01:08;;;;;;;11.48;1.52;;;13.80;99.90;;;;;;5030149;28;20041;-60
2022/05/28 09:03:59;;;;;;;11.48;1.80;;;13.60;99.90;;;;;;5029837;28;20108;-60
2022/05/28 09:06:38;;;;;;;14.95;1.77;;;13.60;99.90;;;;;;5029842;28;20530;-61
2022/05/28 09:09:06;;;;;;;15.98;2.13;;;13.70;99.90;;;;;;5031316;28;20049;-61
2022/05/28 09:12:02;;;;;;;13.80;1.40;;;13.40;99.90;;;;;;5046377;28;20590;-61
2022/05/28 09:14:35;;;;;;;13.65;1.85;;;13.80;99.90;;;;;;5047849;28;20492;-60
2022/05/28 09:17:12;;;;;;;12.02;1.58;;;14.00;99.90;;;;;;5032022;28;20076;-61
2022/05/28 09:19:41;;;;;;;11.77;1.23;;;14.10;99.90;;;;;;5033166;28;20041;-60
2022/05/28 09:22:08;;;;;;;11.48;1.48;;;13.80;99.90;;;;;;5033220;28;20500;-65
2022/05/28 09:24:34;;;;;;;12.52;1.38;;;14.10;99.90;;;;;;5065047;28;20416;-61
2022/05/28 09:27:18;;;;;;;11.88;1.52;;;14.60;99.90;;;;;;5065441;28;20049;-61
2022/05/28 09:30:02;;;;;;;12.32;1.75;;;14.20;99.90;;;;;;5065646;28;20087;-60
2022/05/28 09:32:53;;;;;;;10.88;1.73;;;14.10;99.90;;;;;;5065132;28;20045;-59
2022/05/28 09:35:47;;;;;;;8.75;0.95;;;15.00;99.90;;;;;;5063015;28;20115;-60
2022/05/28 09:38:44;;;;;;;9.85;1.30;;;14.80;99.90;;;;;;5062070;28;20759;-60
2022/05/28 09:41:34;;;;;;;11.48;1.02;;;15.30;99.90;;;;;;5046002;28;20041;-60
2022/05/28 09:44:26;;;;;;;8.93;0.90;;;15.50;99.90;;;;;;5030713;28;20045;-60
2022/05/28 09:46:52;;;;;;;12.82;1.33;;;15.10;99.90;;;;;;5063325;28;20037;-61
2022/05/28 09:49:24;;;;;;;10.18;1.10;;;15.10;99.90;;;;;;5045373;28;20133;-61
2022/05/28 09:52:06;;;;;;;9.07;1.27;;;15.30;99.90;;;;;;5029366;28;20522;-61
2022/05/28 09:54:33;;;;;;;10.97;0.80;;;14.60;99.90;;;;;;5062357;28;20046;-60
2022/05/28 09:57:20;;;;;;;8.52;0.80;;;14.20;99.90;;;;;;5030402;28;20041;-60
2022/05/28 09:59:59;;;;;;;11.43;1.10;;;14.60;99.90;;;;;;5062006;28;20097;-60
2022/05/28 10:02:42;;;;;;;8.98;1.15;;;15.30;99.90;;;;;;5029216;28;20442;-60
2022/05/28 10:05:14;;;;;;;7.80;0.90;;;15.50;99.90;;;;;;5028659;28;20091;-60
2022/05/28 10:07:49;;;;;;;8.18;0.85;;;16.10;99.90;;;;;;5061897;28;20404;-60
2022/05/28 10:10:22;;;;;;;10.50;1.40;;;15.50;99.10;;;;;;5030341;28;20540;-60
2022/05/28 10:12:48;;;;;;;12.20;1.35;;;16.00;99.90;;;;;;5061953;28;20049;-61
2022/05/28 10:15:17;;;;;;;10.55;1.50;;;16.10;99.90;;;;;;5028725;28;20111;-60
2022/05/28 10:17:52;;;;;;;8.13;0.98;;;16.10;99.20;;;;;;5012267;28;20139;-60
2022/05/28 10:20:20;;;;;;;8.82;0.88;;;16.30;95.10;;;;;;5061794;28;20038;-60
2022/05/28 10:22:52;;;;;;;6.88;0.70;;;15.40;92.00;;;;;;5062059;28;20376;-61
2022/05/28 10:25:46;;;;;;;8.20;1.10;;;15.30;93.20;;;;;;5028301;28;20052;-61
2022/05/28 10:28:12;;;;;;;6.90;1.10;;;15.50;93.70;;;;;;5012264;28;20049;-61
2022/05/28 10:30:43;;;;;;;8.55;1.00;;;15.60;99.90;;;;;;5061771;28;20426;-60
2022/05/28 10:33:19;;;;;;;11.95;0.80;;;16.20;99.20;;;;;;5029647;28;20077;-60
2022/05/28 10:35:46;;;;;;;8.30;1.23;;;16.60;97.70;;;;;;5061531;28;20053;-60
2022/05/28 10:38:12;;;;;;;9.85;1.10;;;16.20;92.30;;;;;;5028411;28;20052;-60
2022/05/28 10:40:56;;;;;;;8.85;1.00;;;16.30;95.60;;;;;;5061702;28;20034;-61
2022/05/28 10:43:37;;;;;;;12.48;1.40;;;14.80;98.30;;;;;;5044648;28;20450;-60
2022/05/28 10:46:15;;;;;;;7.65;1.08;;;14.60;99.90;;;;;;5061576;28;20492;-60
2022/05/28 10:48:46;;;;;;;13.75;1.45;;;15.40;99.90;;;;;;5044555;28;20128;-60
2022/05/28 10:51:19;;;;;;;11.40;1.60;;;16.00;99.90;;;;;;5060698;28;20150;-60
2022/05/28 10:54:15;;;;;;;10.63;1.30;;;16.20;99.90;;;;;;5061343;28;20053;-60
2022/05/28 10:56:52;;;;;;;11.55;1.27;;;15.50;99.90;;;;;;5029360;28;20133;-60
2022/05/28 10:59:40;;;;;;;11.95;1.40;;;15.10;99.90;;;;;;5061252;28;20049;-60
2022/05/28 11:02:38;;;;;;;10.85;1.23;;;15.00;99.90;;;;;;5061065;28;20480;-60
2022/05/28 11:05:11;;;;;;;10.05;1.00;;;15.40;99.90;;;;;;5018540;28;20087;-61
2022/05/28 11:08:10;;;;;;;8.70;1.17;;;15.70;99.40;;;;;;5060799;28;20046;-60
2022/05/28 11:10:41;;;;;;;8.13;0.82;;;15.40;99.90;;;;;;5021402;28;20445;-61
2022/05/28 11:13:23;;;;;;;12.07;1.40;;;15.80;99.90;;;;;;5060704;28;20045;-61
2022/05/28 11:16:12;;;;;;;11.95;1.15;;;16.40;99.90;;;;;;5029149;28;20146;-61
2022/05/28 11:18:57;;;;;;;10.68;1.00;;;16.00;93.90;;;;;;5061281;28;20042;-60
2022/05/28 11:21:31;;;;;;;14.15;1.13;;;15.30;94.20;;;;;;5060885;28;20038;-61
2022/05/28 11:24:15;;;;;;;10.13;1.00;;;15.30;94.80;;;;;;5061036;28;20049;-61
2022/05/28 11:26:52;;;;;;;8.45;0.90;;;14.60;99.30;;;;;;5061159;28;20423;-60
2022/05/28 11:29:21;;;;;;;13.77;1.45;;;14.70;99.90;;;;;;5028694;28;20045;-60
2022/05/28 11:31:53;;;;;;;11.15;1.33;;;15.30;99.90;;;;;;5060541;28;20042;-60
2022/05/28 11:35:01;;;;;;;7.05;0.80;;;15.00;99.90;;;;;;5061759;28;20041;-61
2022/05/28 11:37:57;;;;;;;14.98;0.95;;;15.20;97.40;;;;;;5025919;28;20053;-61
2022/05/28 11:40:32;;;;;;;7.88;0.63;;;15.80;95.30;;;;;;5035063;28;20041;-61
2022/05/28 11:43:00;;;;;;;7.90;0.70;;;15.90;90.00;;;;;;5052475;28;20041;-60
2022/05/28 11:45:33;;;;;;;12.48;0.95;;;15.40;91.70;;;;;;5054786;28;20487;-60
2022/05/28 11:48:13;;;;;;;7.03;1.10;;;15.60;93.00;;;;;;5043950;28;20491;-60
2022/05/28 11:53:47;;;;;;;9.80;0.80;;;15.50;95.40;;;;;;5048287;28;20389;-60
2022/05/28 11:56:19;;;;;;;8.88;1.05;;;14.90;92.60;;;;;;5034739;28;20412;-61
2022/05/28 11:58:49;;;;;;;11.57;1.17;;;15.00;99.40;;;;;;5031549;28;20048;-60
2022/05/28 12:01:24;;;;;;;87.65;46.65;;;15.20;99.90;;;;;;5027538;28;20046;-60
2022/05/28 12:03:52;;;;;;;16.05;5.80;;;15.10;99.90;;;;;;5037693;28;20048;-60
2022/05/28 12:06:37;;;;;;;11.10;1.20;;;14.90;99.90;;;;;;5058339;28;20543;-60
2022/05/28 12:09:15;;;;;;;15.13;1.48;;;14.50;99.90;;;;;;5033680;28;20045;-60
2022/05/28 12:12:12;;;;;;;16.15;2.35;;;14.60;99.90;;;;;;5040319;28;20056;-60
2022/05/28 12:14:41;;;;;;;10.98;1.40;;;14.80;99.90;;;;;;5033212;28;20514;-60
2022/05/28 12:17:19;;;;;;;12.50;1.50;;;15.00;99.90;;;;;;5049471;28;20116;-60
2022/05/28 12:19:46;;;;;;;14.32;1.63;;;14.30;99.90;;;;;;5048791;28;20568;-60
2022/05/28 12:22:24;;;;;;;14.07;1.50;;;13.80;99.90;;;;;;5050604;28;20032;-60
2022/05/28 12:25:03;;;;;;;12.70;1.42;;;14.00;99.90;;;;;;5037599;28;20507;-61
2022/05/28 12:27:45;;;;;;;10.98;1.45;;;13.90;99.90;;;;;;5048312;28;20052;-59
2022/05/28 12:30:37;;;;;;;12.07;1.80;;;13.60;99.90;;;;;;5030379;28;20084;-59
2022/05/28 12:33:04;;;;;;;11.50;1.58;;;13.30;99.90;;;;;;5034203;28;20041;-59
2022/05/28 12:35:50;;;;;;;7.18;2.00;;;13.60;99.90;;;;;;5017450;28;20133;-59
2022/05/28 12:38:35;;;;;;;7.00;0.80;;;14.00;99.90;;;;;;5053846;28;20037;-61
2022/05/28 12:41:01;;;;;;;8.45;1.83;;;15.00;99.90;;;;;;5057811;28;20218;-60
2022/05/28 12:43:35;;;;;;;6.45;0.60;;;15.70;94.30;;;;;;5030909;28;20548;-61
2022/05/28 12:46:36;;;;;;;10.05;1.27;;;15.30;94.20;;;;;;5037236;28;20044;-61
2022/05/28 12:49:09;;;;;;;12.40;4.78;;;15.70;97.10;;;;;;5030569;28;20055;-60
2022/05/28 12:51:50;;;;;;;9.05;0.93;;;16.20;93.70;;;;;;5037873;28;20111;-60
2022/05/28 12:54:30;;;;;;;6.65;0.63;;;16.20;99.00;;;;;;5017070;28;20053;-60
2022/05/28 12:57:25;;;;;;;6.25;0.70;;;17.20;90.20;;;;;;5034620;28;20447;-60
2022/05/28 13:00:00;;;;;;;6.40;0.85;;;16.20;90.50;;;;;;5044493;28;20116;-61
2022/05/28 13:02:31;;;;;;;9.98;2.08;;;16.00;95.60;;;;;;5031047;28;20052;-60
2022/05/28 13:05:11;;;;;;;9.35;1.77;;;15.90;92.60;;;;;;5048015;28;20041;-60
2022/05/28 13:08:07;;;;;;;9.40;1.02;;;16.20;95.00;;;;;;5034149;28;20049;-60
2022/05/28 13:10:33;;;;;;;9.20;1.88;;;16.30;95.10;;;;;;5040140;28;20510;-60